Time;durP1;ratioP1;P1;durP2;ratioP2;P2;SDS_P1;SDS_P2;PMS_P1;PMS_P2;Temp;Humidity;BMP_temperature;BMP_pressure;BME280_temperature;BME280_humidity;BME280_pressure;Samples;Min_cycle;Max_cycle;Signal;HPM_P1;HPM_P2
2021/08/03 00:02:23;;;;;;;7.10;3.47;;;16.70;92.00;;;;;;5008311;28;20205;-72
2021/08/03 00:04:54;;;;;;;6.03;3.40;;;16.70;92.10;;;;;;5010542;28;20204;-72
2021/08/03 00:07:21;;;;;;;6.28;3.20;;;16.70;92.20;;;;;;5003390;28;20642;-72
2021/08/03 00:09:49;;;;;;;8.25;3.30;;;16.70;92.30;;;;;;5006723;28;20247;-72
2021/08/03 00:12:18;;;;;;;8.05;3.70;;;16.60;92.30;;;;;;5011533;28;20625;-72
2021/08/03 00:14:46;;;;;;;6.75;3.30;;;16.60;92.40;;;;;;5011620;28;20220;-72
2021/08/03 00:17:15;;;;;;;7.38;2.85;;;16.50;92.50;;;;;;5009271;28;20622;-73
2021/08/03 00:19:42;;;;;;;5.93;3.08;;;16.50;92.60;;;;;;5008521;28;20675;-72
2021/08/03 00:22:09;;;;;;;8.25;3.60;;;16.50;92.70;;;;;;5011164;28;20205;-70
2021/08/03 00:24:37;;;;;;;8.10;3.90;;;16.50;92.80;;;;;;5010430;28;20197;-70
2021/08/03 00:27:05;;;;;;;8.77;4.30;;;16.40;92.80;;;;;;5006225;28;20200;-71
2021/08/03 00:29:35;;;;;;;5.25;3.40;;;16.40;92.90;;;;;;5009897;28;20665;-71
2021/08/03 00:32:03;;;;;;;8.52;3.70;;;16.40;93.00;;;;;;5008934;28;20220;-71
2021/08/03 00:34:31;;;;;;;8.52;3.90;;;16.40;93.10;;;;;;5009688;28;20212;-70
2021/08/03 00:36:58;;;;;;;6.30;3.70;;;16.40;93.10;;;;;;5006433;28;20228;-71
2021/08/03 00:39:28;;;;;;;6.63;3.60;;;16.30;93.30;;;;;;5010503;28;20212;-71
2021/08/03 00:41:59;;;;;;;9.35;3.90;;;16.30;93.40;;;;;;5006958;28;20211;-71
2021/08/03 00:44:39;;;;;;;8.48;3.72;;;16.30;93.60;;;;;;5006756;28;20203;-70
2021/08/03 00:47:07;;;;;;;8.95;4.05;;;16.30;93.70;;;;;;5006690;28;20275;-70
2021/08/03 00:49:35;;;;;;;5.47;3.65;;;16.20;93.80;;;;;;5010194;28;20204;-70
2021/08/03 00:52:04;;;;;;;7.53;3.63;;;16.30;93.90;;;;;;5013988;28;20193;-70
2021/08/03 00:54:33;;;;;;;7.80;3.45;;;16.20;94.00;;;;;;5012417;28;20207;-70
2021/08/03 00:57:01;;;;;;;8.38;4.13;;;16.30;94.10;;;;;;5008926;28;20211;-70
2021/08/03 00:59:28;;;;;;;6.43;3.53;;;16.20;94.20;;;;;;5008678;28;20283;-71
2021/08/03 01:01:57;;;;;;;6.03;3.90;;;16.20;94.20;;;;;;5010963;28;20263;-71
2021/08/03 01:04:27;;;;;;;9.65;4.00;;;16.20;94.30;;;;;;5007365;28;20200;-70
2021/08/03 01:07:04;;;;;;;5.65;3.72;;;16.20;94.30;;;;;;5008364;28;20200;-71
2021/08/03 01:09:40;;;;;;;4.57;3.55;;;16.20;94.40;;;;;;5006770;28;20250;-71
2021/08/03 01:12:19;;;;;;;6.75;3.83;;;16.10;94.40;;;;;;5010988;28;20217;-70
2021/08/03 01:14:54;;;;;;;5.63;3.83;;;16.10;94.50;;;;;;5009025;28;20211;-70
2021/08/03 01:17:30;;;;;;;8.07;4.20;;;16.10;94.70;;;;;;5011353;28;20200;-71
2021/08/03 01:20:06;;;;;;;8.45;4.00;;;16.00;94.60;;;;;;5012501;28;20200;-71
2021/08/03 01:23:00;;;;;;;5.90;3.78;;;16.00;94.70;;;;;;5012504;28;20201;-71
2021/08/03 01:25:39;;;;;;;6.18;3.65;;;16.00;94.70;;;;;;5013524;28;20195;-71
2021/08/03 01:28:24;;;;;;;10.40;3.78;;;16.00;94.80;;;;;;5006989;28;20200;-71
2021/08/03 01:30:57;;;;;;;5.32;3.80;;;15.90;94.80;;;;;;5010126;28;20236;-70
2021/08/03 01:33:27;;;;;;;5.50;3.40;;;15.90;95.00;;;;;;5012140;28;20219;-70
2021/08/03 01:35:59;;;;;;;8.80;3.80;;;15.80;95.10;;;;;;5015520;28;20271;-71
2021/08/03 01:38:29;;;;;;;5.80;3.50;;;15.80;95.20;;;;;;5012752;28;20735;-71
2021/08/03 01:41:03;;;;;;;10.57;4.30;;;15.80;95.40;;;;;;5008123;28;20310;-71
2021/08/03 01:43:33;;;;;;;10.20;4.03;;;15.80;95.50;;;;;;5010713;28;20212;-71
2021/08/03 01:46:04;;;;;;;11.02;4.13;;;15.80;95.60;;;;;;5011474;28;20205;-71
2021/08/03 01:48:34;;;;;;;12.73;4.75;;;15.70;95.60;;;;;;5010388;28;20731;-71
2021/08/03 01:51:03;;;;;;;7.05;4.25;;;15.70;95.70;;;;;;5004798;28;20211;-71
2021/08/03 01:53:34;;;;;;;5.85;3.65;;;15.70;95.80;;;;;;5011068;28;20216;-71
2021/08/03 01:56:03;;;;;;;6.25;3.65;;;15.60;95.90;;;;;;5012399;28;20668;-71
2021/08/03 01:58:34;;;;;;;8.32;3.72;;;15.60;96.00;;;;;;5008905;28;20204;-72
2021/08/03 02:01:11;;;;;;;5.03;3.25;;;15.60;96.20;;;;;;5006620;28;20211;-72
2021/08/03 02:03:40;;;;;;;7.45;3.25;;;15.60;96.30;;;;;;5004488;28;20216;-71
2021/08/03 02:06:16;;;;;;;10.77;3.70;;;15.70;96.50;;;;;;5005270;28;20690;-70
2021/08/03 02:08:45;;;;;;;7.78;3.45;;;15.70;96.60;;;;;;5009394;28;20220;-71
2021/08/03 02:11:16;;;;;;;5.38;3.60;;;15.70;96.70;;;;;;5012014;28;20619;-70
2021/08/03 02:13:47;;;;;;;7.43;3.25;;;15.70;96.70;;;;;;5008358;28;20211;-71
2021/08/03 02:16:25;;;;;;;5.05;3.17;;;15.80;96.80;;;;;;5013983;28;20243;-70
2021/08/03 02:18:57;;;;;;;9.10;3.33;;;15.70;96.90;;;;;;5008241;28;20625;-71
2021/08/03 02:21:30;;;;;;;5.72;3.53;;;15.70;96.90;;;;;;5006665;28;20208;-71
2021/08/03 02:23:57;;;;;;;4.90;3.60;;;15.70;97.10;;;;;;5014313;28;20254;-71
2021/08/03 02:26:27;;;;;;;7.47;3.30;;;15.70;97.20;;;;;;5011745;28;20192;-70
2021/08/03 02:28:56;;;;;;;6.63;2.80;;;15.70;97.30;;;;;;5011962;28;20220;-70
2021/08/03 02:31:28;;;;;;;7.47;3.58;;;15.70;97.40;;;;;;5015165;28;20295;-70
2021/08/03 02:34:02;;;;;;;8.02;3.70;;;15.70;97.60;;;;;;5011619;28;20207;-70
2021/08/03 02:36:32;;;;;;;6.80;3.72;;;15.80;97.70;;;;;;5007563;28;20225;-72
2021/08/03 02:39:04;;;;;;;8.85;3.75;;;15.80;97.70;;;;;;5007811;28;20204;-71
2021/08/03 02:41:33;;;;;;;8.40;3.90;;;15.80;98.10;;;;;;5009645;28;20209;-70
2021/08/03 02:44:06;;;;;;;6.25;3.80;;;15.80;97.80;;;;;;5012094;28;20207;-71
2021/08/03 02:46:33;;;;;;;5.38;3.70;;;15.80;97.80;;;;;;5010294;28;20284;-71
2021/08/03 02:49:03;;;;;;;6.82;3.72;;;15.90;97.90;;;;;;5011466;28;20196;-71
2021/08/03 02:51:32;;;;;;;6.25;4.03;;;15.90;97.90;;;;;;5014625;28;20197;-71
2021/08/03 02:54:03;;;;;;;6.20;3.30;;;15.90;97.90;;;;;;5010534;28;20208;-71
2021/08/03 02:56:32;;;;;;;5.90;3.47;;;15.90;97.90;;;;;;5013451;28;20302;-69
2021/08/03 02:59:07;;;;;;;6.93;3.03;;;16.00;98.00;;;;;;5009530;28;20208;-69
2021/08/03 03:01:37;;;;;;;5.28;3.20;;;16.00;98.00;;;;;;5011345;28;20208;-72
2021/08/03 03:04:10;;;;;;;8.70;3.40;;;16.00;98.00;;;;;;5013471;28;20220;-72
2021/08/03 03:06:39;;;;;;;7.82;3.50;;;16.00;97.90;;;;;;5006993;28;20197;-70
2021/08/03 03:09:05;;;;;;;5.75;3.53;;;16.00;97.90;;;;;;5003206;28;20259;-70
2021/08/03 03:11:37;;;;;;;6.38;3.45;;;16.00;97.90;;;;;;5007942;28;20213;-71
2021/08/03 03:14:11;;;;;;;5.63;3.30;;;16.10;97.80;;;;;;5006075;28;20719;-70
2021/08/03 03:16:42;;;;;;;4.25;3.10;;;16.10;97.70;;;;;;5003972;28;20664;-71
2021/08/03 03:19:10;;;;;;;9.00;3.72;;;16.00;97.60;;;;;;5009887;28;20210;-71
2021/08/03 03:21:40;;;;;;;8.23;3.55;;;16.00;97.60;;;;;;5005220;28;20216;-71
2021/08/03 03:24:08;;;;;;;6.03;3.65;;;16.00;97.60;;;;;;5006110;28;20191;-71
2021/08/03 03:26:38;;;;;;;5.28;3.28;;;16.00;97.60;;;;;;5014544;28;20220;-69
2021/08/03 03:29:14;;;;;;;8.15;3.55;;;16.00;97.90;;;;;;5008117;28;20212;-70
2021/08/03 03:31:42;;;;;;;7.03;3.50;;;16.00;97.50;;;;;;5013601;28;20189;-71
2021/08/03 03:34:11;;;;;;;5.78;3.58;;;16.00;97.40;;;;;;5009665;28;20220;-72
2021/08/03 03:36:39;;;;;;;4.60;2.97;;;16.00;97.40;;;;;;5009947;28;20719;-71
2021/08/03 03:39:11;;;;;;;6.70;2.83;;;16.00;97.40;;;;;;5008578;28;20661;-70
2021/08/03 03:41:46;;;;;;;7.80;2.92;;;15.90;97.30;;;;;;5009331;28;20204;-71
2021/08/03 03:44:15;;;;;;;5.07;3.00;;;15.80;97.20;;;;;;5010708;28;20201;-71
2021/08/03 03:46:45;;;;;;;7.43;3.22;;;15.80;97.10;;;;;;5008957;28;20565;-71
2021/08/03 03:49:14;;;;;;;5.95;3.53;;;15.70;97.10;;;;;;5012251;28;20254;-71
2021/08/03 03:51:45;;;;;;;5.60;3.20;;;15.70;97.10;;;;;;5010028;28;20234;-72
2021/08/03 03:54:23;;;;;;;5.70;3.13;;;15.70;97.10;;;;;;5005092;28;20661;-71
2021/08/03 03:56:58;;;;;;;5.22;3.40;;;15.60;97.10;;;;;;5009704;28;20226;-70
2021/08/03 03:59:30;;;;;;;8.10;3.63;;;15.60;97.20;;;;;;5011014;28;20204;-70
2021/08/03 04:02:01;;;;;;;8.95;3.58;;;15.60;97.30;;;;;;5004011;28;20236;-70
2021/08/03 04:04:30;;;;;;;5.40;3.67;;;15.60;97.30;;;;;;5002369;28;20229;-71
2021/08/03 04:06:58;;;;;;;7.03;3.70;;;15.50;97.30;;;;;;5009446;28;20564;-71
2021/08/03 04:09:26;;;;;;;8.35;4.18;;;15.50;97.40;;;;;;5008462;28;20224;-72
2021/08/03 04:11:59;;;;;;;8.18;3.83;;;15.50;97.60;;;;;;5008411;28;20207;-72
2021/08/03 04:14:29;;;;;;;8.45;4.20;;;15.40;97.70;;;;;;5013302;28;20220;-72
2021/08/03 04:17:02;;;;;;;7.22;3.90;;;15.40;97.80;;;;;;5009501;28;20266;-72
2021/08/03 04:19:30;;;;;;;11.88;4.18;;;15.40;98.00;;;;;;5006146;28;20201;-71
2021/08/03 04:21:57;;;;;;;8.70;4.22;;;15.30;98.10;;;;;;5003397;28;20209;-71
2021/08/03 04:24:24;;;;;;;5.70;4.00;;;15.30;98.30;;;;;;5007825;28;20215;-72
2021/08/03 04:26:51;;;;;;;8.82;4.00;;;15.20;98.40;;;;;;5007947;28;20668;-72
2021/08/03 04:29:18;;;;;;;8.77;4.28;;;15.20;98.50;;;;;;5010213;28;20204;-72
2021/08/03 04:31:46;;;;;;;6.18;3.65;;;15.20;98.60;;;;;;5008360;28;20669;-72
2021/08/03 04:34:13;;;;;;;7.90;3.92;;;15.20;98.70;;;;;;5005031;28;20212;-71
2021/08/03 04:36:39;;;;;;;6.05;3.53;;;15.20;98.80;;;;;;5007534;28;20227;-71
2021/08/03 04:39:10;;;;;;;4.75;3.42;;;15.20;98.90;;;;;;5007402;28;20208;-70
2021/08/03 04:41:37;;;;;;;7.97;3.63;;;15.20;99.00;;;;;;5005610;28;20208;-71
2021/08/03 04:44:05;;;;;;;7.38;3.90;;;15.10;99.50;;;;;;5010817;28;20279;-71
2021/08/03 04:46:31;;;;;;;7.18;4.20;;;15.20;99.20;;;;;;5004994;28;20204;-71
2021/08/03 04:49:00;;;;;;;6.18;3.90;;;15.20;99.30;;;;;;5008039;28;20208;-69
2021/08/03 04:51:27;;;;;;;10.25;4.10;;;15.20;99.40;;;;;;5009796;28;20212;-69
2021/08/03 04:54:00;;;;;;;5.80;4.05;;;15.20;99.50;;;;;;5008850;28;20204;-69
2021/08/03 04:56:27;;;;;;;12.45;4.50;;;15.20;99.50;;;;;;5008186;28;20704;-69
2021/08/03 04:58:54;;;;;;;7.90;4.50;;;15.20;99.50;;;;;;5007916;28;20645;-69
2021/08/03 05:01:21;;;;;;;7.30;4.38;;;15.20;99.50;;;;;;5008846;28;20197;-70
2021/08/03 05:03:47;;;;;;;5.80;4.47;;;15.20;99.60;;;;;;5009560;28;20209;-71
2021/08/03 05:06:16;;;;;;;8.07;4.60;;;15.30;99.60;;;;;;5012596;28;20605;-70
2021/08/03 05:08:42;;;;;;;17.77;4.97;;;15.30;99.60;;;;;;5008326;28;20236;-70
2021/08/03 05:11:09;;;;;;;12.02;4.53;;;15.30;99.60;;;;;;5006228;28;20201;-71
2021/08/03 05:13:37;;;;;;;10.55;4.55;;;15.40;99.80;;;;;;5010584;28;20191;-71
2021/08/03 05:16:04;;;;;;;8.77;4.75;;;15.40;99.60;;;;;;5007849;28;20236;-71
2021/08/03 05:18:30;;;;;;;11.77;4.53;;;15.40;99.50;;;;;;5018443;28;20200;-71
2021/08/03 05:20:57;;;;;;;7.07;4.28;;;15.50;99.50;;;;;;5009588;28;20205;-70
2021/08/03 05:23:25;;;;;;;7.88;4.05;;;15.50;99.50;;;;;;5007427;28;20258;-71
2021/08/03 05:25:52;;;;;;;13.60;4.00;;;15.50;99.50;;;;;;5000611;28;20211;-71
2021/08/03 05:28:19;;;;;;;7.82;4.03;;;15.50;99.50;;;;;;5008020;28;20284;-71
2021/08/03 05:30:47;;;;;;;7.53;3.90;;;15.60;99.50;;;;;;5010308;28;20204;-71
2021/08/03 05:33:14;;;;;;;11.65;4.20;;;15.60;99.50;;;;;;5009269;28;20279;-72
2021/08/03 05:35:42;;;;;;;9.40;4.75;;;15.70;99.50;;;;;;5009145;28;20201;-71
2021/08/03 05:38:09;;;;;;;6.78;3.92;;;15.70;99.50;;;;;;5006494;28;21008;-72
2021/08/03 05:40:37;;;;;;;6.40;3.40;;;15.80;99.50;;;;;;5011276;28;20196;-73
2021/08/03 05:43:04;;;;;;;7.22;3.20;;;15.80;99.40;;;;;;5006252;28;20212;-73
2021/08/03 05:45:31;;;;;;;7.38;3.60;;;15.90;99.40;;;;;;5006666;28;20205;-73
2021/08/03 05:47:58;;;;;;;7.40;3.78;;;15.90;99.30;;;;;;5006103;28;20258;-73
2021/08/03 05:50:25;;;;;;;9.68;3.65;;;16.00;99.20;;;;;;5007246;28;20522;-72
2021/08/03 05:52:51;;;;;;;7.85;3.17;;;16.00;99.10;;;;;;5009399;28;20224;-73
2021/08/03 05:55:18;;;;;;;7.80;3.40;;;16.10;99.10;;;;;;5014515;28;20209;-73
2021/08/03 05:57:46;;;;;;;5.75;2.95;;;16.20;99.00;;;;;;5012755;28;20232;-70
2021/08/03 06:00:14;;;;;;;10.40;2.97;;;16.20;98.80;;;;;;5008668;28;20231;-73
2021/08/03 06:02:43;;;;;;;4.53;2.65;;;16.30;98.70;;;;;;5012698;28;20201;-73
2021/08/03 06:05:11;;;;;;;12.88;2.92;;;16.30;98.50;;;;;;5010618;28;20208;-72
2021/08/03 06:07:41;;;;;;;7.68;2.60;;;16.30;98.20;;;;;;5009979;28;20205;-72
2021/08/03 06:10:12;;;;;;;5.90;2.40;;;16.30;98.00;;;;;;5010388;28;20228;-71
2021/08/03 06:12:40;;;;;;;10.90;2.80;;;16.40;97.90;;;;;;5006100;28;20209;-71
2021/08/03 06:15:10;;;;;;;6.30;2.47;;;16.40;97.70;;;;;;5015396;28;20612;-68
2021/08/03 06:17:38;;;;;;;6.97;2.75;;;16.40;97.50;;;;;;5010626;28;20224;-70
2021/08/03 06:20:07;;;;;;;4.80;2.95;;;16.40;97.30;;;;;;5015147;28;20204;-69
2021/08/03 06:22:36;;;;;;;6.55;2.47;;;16.50;97.20;;;;;;5011589;28;20262;-71
2021/08/03 06:25:04;;;;;;;4.38;1.90;;;16.50;97.00;;;;;;5008338;28;20200;-69
2021/08/03 06:27:32;;;;;;;4.97;1.90;;;16.50;96.90;;;;;;5013488;28;20206;-69
2021/08/03 06:30:02;;;;;;;6.43;1.88;;;16.50;96.90;;;;;;5009477;28;20204;-72
2021/08/03 06:32:31;;;;;;;4.60;2.00;;;16.50;96.80;;;;;;5010288;28;20295;-72
2021/08/03 06:34:58;;;;;;;7.05;2.10;;;16.60;96.70;;;;;;5011575;28;20200;-71
2021/08/03 06:37:25;;;;;;;6.00;2.00;;;16.60;96.50;;;;;;5011039;28;20556;-71
2021/08/03 06:39:52;;;;;;;7.25;2.35;;;16.60;96.40;;;;;;5007250;28;20614;-72
2021/08/03 06:42:27;;;;;;;6.13;2.22;;;16.60;96.20;;;;;;5012966;28;20623;-74
2021/08/03 06:44:59;;;;;;;4.35;1.75;;;16.60;96.20;;;;;;5010855;28;20239;-68
2021/08/03 06:47:29;;;;;;;3.80;1.75;;;16.70;96.20;;;;;;5009703;28;20275;-72
2021/08/03 06:50:00;;;;;;;3.00;1.63;;;16.60;96.10;;;;;;5007431;28;20209;-72
2021/08/03 06:52:27;;;;;;;5.93;2.33;;;16.70;96.10;;;;;;5009021;28;20255;-71
2021/08/03 06:55:02;;;;;;;2.60;1.50;;;16.70;95.90;;;;;;5010277;28;20204;-71
2021/08/03 06:57:32;;;;;;;4.15;2.13;;;16.70;95.80;;;;;;5010289;28;20690;-71
2021/08/03 07:00:04;;;;;;;3.55;1.63;;;16.70;95.80;;;;;;5009436;28;20220;-70
2021/08/03 07:02:33;;;;;;;5.43;1.58;;;16.70;95.70;;;;;;5006736;28;20623;-70
2021/08/03 07:05:07;;;;;;;5.55;2.13;;;16.80;95.60;;;;;;5011192;28;20547;-70
2021/08/03 07:07:35;;;;;;;4.10;1.95;;;16.80;95.60;;;;;;5008064;28;20197;-71
2021/08/03 07:10:04;;;;;;;2.90;1.88;;;16.80;95.50;;;;;;5004411;28;20242;-70
2021/08/03 07:12:31;;;;;;;2.47;1.30;;;16.90;95.50;;;;;;5003282;28;20264;-71
2021/08/03 07:14:58;;;;;;;4.57;1.40;;;16.90;95.40;;;;;;5007137;28;20220;-71
2021/08/03 07:17:26;;;;;;;6.40;1.52;;;16.90;95.20;;;;;;5003703;28;20224;-70
2021/08/03 07:19:53;;;;;;;6.03;1.50;;;16.90;95.10;;;;;;5005405;28;20208;-70
2021/08/03 07:22:21;;;;;;;3.03;1.70;;;17.00;95.10;;;;;;5006235;28;20658;-72
2021/08/03 07:24:48;;;;;;;6.60;2.47;;;17.00;95.00;;;;;;5012453;28;20223;-71
2021/08/03 07:27:16;;;;;;;2.58;1.38;;;17.10;95.00;;;;;;5009121;28;20281;-69
2021/08/03 07:29:43;;;;;;;2.88;1.50;;;17.10;94.80;;;;;;5003727;28;20711;-71
2021/08/03 07:32:12;;;;;;;3.95;1.67;;;17.10;94.50;;;;;;5012707;28;20205;-70
2021/08/03 07:34:39;;;;;;;4.18;1.38;;;17.10;94.30;;;;;;5011080;28;20755;-71
2021/08/03 07:37:08;;;;;;;3.72;1.50;;;17.20;94.10;;;;;;5010109;28;20278;-71
2021/08/03 07:39:37;;;;;;;4.55;1.30;;;17.20;94.00;;;;;;5014088;28;20195;-71
2021/08/03 07:42:05;;;;;;;3.90;1.40;;;17.30;94.10;;;;;;5008640;28;20204;-72
2021/08/03 07:44:32;;;;;;;4.18;1.60;;;17.30;93.90;;;;;;5010188;28;20206;-72
2021/08/03 07:46:59;;;;;;;4.70;1.42;;;17.30;93.60;;;;;;5007494;28;20263;-70
2021/08/03 07:49:26;;;;;;;4.03;1.60;;;17.40;93.50;;;;;;5008792;28;20722;-72
2021/08/03 07:51:53;;;;;;;3.67;1.60;;;17.50;93.50;;;;;;5009988;28;20406;-69
2021/08/03 07:54:20;;;;;;;2.70;1.70;;;17.50;93.70;;;;;;5013218;28;20254;-68
2021/08/03 07:56:48;;;;;;;4.90;2.00;;;17.60;93.80;;;;;;5011584;28;20271;-71
2021/08/03 07:59:15;;;;;;;5.63;2.17;;;17.70;93.90;;;;;;5002221;28;20188;-72
2021/08/03 08:01:42;;;;;;;3.65;1.80;;;17.70;93.90;;;;;;5005176;28;20254;-71
2021/08/03 08:04:09;;;;;;;2.97;1.80;;;17.80;93.90;;;;;;5010435;28;20205;-70
2021/08/03 08:06:35;;;;;;;5.38;1.88;;;17.90;93.80;;;;;;5010417;28;20196;-71
2021/08/03 08:09:02;;;;;;;3.65;1.40;;;17.90;93.70;;;;;;5007496;28;20628;-67
2021/08/03 08:11:29;;;;;;;3.40;1.40;;;18.10;93.50;;;;;;5014436;28;20258;-75
2021/08/03 08:13:57;;;;;;;7.78;1.88;;;18.20;93.40;;;;;;5007067;28;20200;-70
2021/08/03 08:16:24;;;;;;;3.05;1.40;;;18.30;93.10;;;;;;5009122;28;20597;-73
2021/08/03 08:18:51;;;;;;;1.63;1.20;;;18.40;92.80;;;;;;5005613;28;20221;-70
2021/08/03 08:21:18;;;;;;;3.28;1.50;;;18.50;92.30;;;;;;5007509;28;20205;-74
2021/08/03 08:23:44;;;;;;;2.50;1.20;;;18.60;92.10;;;;;;5009128;28;20220;-73
2021/08/03 08:26:11;;;;;;;6.47;1.40;;;18.80;92.40;;;;;;5009345;28;20224;-70
2021/08/03 08:28:38;;;;;;;3.78;1.60;;;19.00;92.60;;;;;;5007559;28;20262;-74
2021/08/03 08:31:06;;;;;;;5.70;1.25;;;19.30;92.40;;;;;;5015040;28;20207;-72
2021/08/03 08:33:33;;;;;;;2.45;1.02;;;19.60;92.00;;;;;;5009314;28;20205;-71
2021/08/03 08:36:00;;;;;;;4.65;1.00;;;20.00;91.30;;;;;;5006462;28;20251;-71
2021/08/03 08:38:26;;;;;;;3.25;1.00;;;20.40;90.70;;;;;;5005944;28;20771;-70
2021/08/03 08:40:54;;;;;;;4.72;1.38;;;20.80;89.60;;;;;;5006376;28;20643;-71
2021/08/03 08:43:21;;;;;;;4.85;1.27;;;21.20;87.00;;;;;;5007078;28;20200;-72
2021/08/03 08:45:48;;;;;;;3.53;1.25;;;21.50;84.00;;;;;;5009240;28;20212;-73
2021/08/03 08:48:21;;;;;;;5.57;1.10;;;21.60;81.20;;;;;;5005199;28;20196;-72
2021/08/03 08:50:48;;;;;;;4.22;1.27;;;21.50;79.30;;;;;;5005978;28;20216;-72
2021/08/03 08:53:15;;;;;;;1.92;1.00;;;21.40;78.60;;;;;;5007710;28;20204;-72
2021/08/03 08:55:42;;;;;;;5.30;1.65;;;21.30;78.10;;;;;;5009014;28;20201;-72
2021/08/03 08:58:09;;;;;;;3.35;1.30;;;21.10;77.50;;;;;;5010152;28;20251;-73
2021/08/03 09:00:36;;;;;;;3.83;1.15;;;20.90;77.30;;;;;;5010530;28;20197;-72
2021/08/03 09:03:03;;;;;;;2.65;1.30;;;20.70;77.50;;;;;;5009888;28;20209;-73
2021/08/03 09:05:33;;;;;;;4.90;1.48;;;20.50;77.50;;;;;;5016586;28;20200;-73
2021/08/03 09:08:02;;;;;;;5.43;1.52;;;20.40;77.70;;;;;;5004942;28;20554;-72
2021/08/03 09:10:40;;;;;;;4.72;1.50;;;20.20;77.90;;;;;;5006469;28;20212;-73
2021/08/03 09:13:10;;;;;;;6.80;2.40;;;20.00;78.50;;;;;;5009569;28;20662;-70
2021/08/03 09:15:38;;;;;;;4.65;1.50;;;19.90;78.80;;;;;;5006266;28;20645;-73
2021/08/03 09:18:19;;;;;;;2.92;1.40;;;19.80;79.40;;;;;;5008291;28;20633;-72
2021/08/03 09:20:48;;;;;;;3.15;1.40;;;19.70;79.60;;;;;;5011692;28;20200;-72
2021/08/03 09:23:16;;;;;;;3.58;1.30;;;19.60;79.50;;;;;;5013053;28;20204;-73
2021/08/03 09:25:54;;;;;;;3.83;1.55;;;19.50;79.70;;;;;;5007579;28;20200;-73
2021/08/03 09:28:21;;;;;;;5.32;1.58;;;19.40;80.10;;;;;;5002040;28;20247;-73
2021/08/03 09:30:47;;;;;;;5.63;1.60;;;19.40;80.40;;;;;;5015228;28;20200;-71
2021/08/03 09:33:22;;;;;;;2.85;1.42;;;19.30;80.60;;;;;;5008718;28;20209;-71
2021/08/03 09:35:51;;;;;;;4.30;1.42;;;19.20;80.70;;;;;;5014411;28;20212;-73
2021/08/03 09:38:19;;;;;;;5.88;1.60;;;19.20;80.90;;;;;;5005908;28;20680;-71
2021/08/03 09:40:47;;;;;;;4.32;1.80;;;19.20;81.10;;;;;;5005810;28;20211;-72
2021/08/03 09:43:15;;;;;;;4.35;1.73;;;19.20;81.40;;;;;;5011889;28;20227;-73
2021/08/03 09:45:59;;;;;;;4.00;1.55;;;19.20;81.70;;;;;;5010476;28;20259;-73
2021/08/03 09:48:27;;;;;;;5.80;1.60;;;19.10;81.90;;;;;;5013929;28;20657;-72
2021/08/03 09:50:58;;;;;;;3.88;1.73;;;19.10;82.10;;;;;;5012579;28;20200;-73
2021/08/03 09:53:39;;;;;;;9.45;2.35;;;19.10;82.30;;;;;;5010821;28;20545;-73
2021/08/03 09:56:06;;;;;;;10.27;1.80;;;19.10;82.30;;;;;;5008997;28;20630;-72
2021/08/03 09:58:34;;;;;;;3.80;1.83;;;19.20;82.60;;;;;;5007149;28;20280;-72
2021/08/03 10:01:22;;;;;;;4.93;1.90;;;19.20;82.70;;;;;;5007548;28;20208;-73
2021/08/03 10:03:50;;;;;;;5.32;1.70;;;19.30;82.80;;;;;;5012400;28;20623;-73
2021/08/03 10:06:20;;;;;;;3.83;1.83;;;19.30;82.80;;;;;;5020182;28;20668;-73
2021/08/03 10:08:47;;;;;;;7.13;2.08;;;19.30;82.80;;;;;;5011580;28;20599;-73
2021/08/03 10:11:15;;;;;;;5.07;1.88;;;19.30;82.90;;;;;;5006894;28;20247;-73
2021/08/03 10:13:42;;;;;;;7.13;1.98;;;19.30;83.10;;;;;;5014208;28;20196;-73
2021/08/03 10:16:09;;;;;;;7.05;2.30;;;19.30;83.20;;;;;;5007530;28;20324;-71
2021/08/03 10:18:39;;;;;;;6.20;2.20;;;19.30;83.60;;;;;;5012484;28;20224;-71
2021/08/03 10:21:07;;;;;;;5.97;2.10;;;19.30;84.30;;;;;;5010594;28;20582;-72
2021/08/03 10:23:37;;;;;;;6.70;2.50;;;19.30;84.80;;;;;;5009657;28;20726;-73
2021/08/03 10:26:11;;;;;;;5.97;2.20;;;19.30;84.90;;;;;;5009251;28;20204;-73
2021/08/03 10:28:38;;;;;;;4.07;1.85;;;19.20;85.00;;;;;;5015093;28;20188;-73
2021/08/03 10:31:05;;;;;;;4.15;2.22;;;19.20;85.10;;;;;;5018047;28;20204;-72
2021/08/03 10:33:40;;;;;;;3.10;1.83;;;19.20;85.40;;;;;;5014750;28;20723;-70
2021/08/03 10:36:07;;;;;;;7.60;2.05;;;19.20;85.50;;;;;;5010180;28;20208;-71
2021/08/03 10:38:36;;;;;;;4.30;2.17;;;19.20;85.30;;;;;;5005856;28;20220;-71
2021/08/03 10:41:08;;;;;;;7.95;2.47;;;19.20;86.00;;;;;;5006809;28;20201;-69
2021/08/03 10:43:49;;;;;;;3.25;1.95;;;19.10;85.20;;;;;;5008676;28;20208;-72
2021/08/03 10:46:36;;;;;;;4.45;1.77;;;19.10;85.20;;;;;;5008720;28;20219;-72
2021/08/03 10:49:04;;;;;;;6.28;1.90;;;19.10;85.20;;;;;;5014762;28;20196;-73
2021/08/03 10:51:38;;;;;;;7.60;2.10;;;19.10;85.50;;;;;;5011717;28;20208;-73
2021/08/03 10:54:08;;;;;;;6.93;2.10;;;19.10;85.90;;;;;;5003005;28;20205;-73
2021/08/03 10:57:20;;;;;;;7.03;1.95;;;19.10;86.30;;;;;;5006539;28;20200;-71
2021/08/03 11:00:03;;;;;;;3.10;1.48;;;19.10;86.80;;;;;;5013442;28;20235;-73
2021/08/03 11:02:44;;;;;;;8.60;1.63;;;19.10;87.60;;;;;;5014096;28;20200;-72
2021/08/03 11:05:27;;;;;;;7.80;1.67;;;19.10;87.90;;;;;;5014721;28;20204;-73
2021/08/03 11:07:53;;;;;;;7.18;1.75;;;19.10;88.20;;;;;;5007723;28;20196;-73
2021/08/03 11:10:35;;;;;;;4.10;1.73;;;19.10;88.60;;;;;;5008905;28;20240;-73
2021/08/03 11:13:03;;;;;;;8.02;2.10;;;19.10;89.10;;;;;;5009704;28;20205;-73
2021/08/03 11:15:35;;;;;;;10.60;1.88;;;19.10;89.60;;;;;;5013915;28;20299;-73
2021/08/03 11:18:03;;;;;;;5.47;1.80;;;19.20;90.00;;;;;;5010516;28;20695;-73
2021/08/03 11:21:07;;;;;;;6.30;1.80;;;19.20;90.20;;;;;;5011404;28;20573;-72
2021/08/03 11:23:57;;;;;;;6.63;2.35;;;19.20;90.20;;;;;;5006317;28;20614;-73
2021/08/03 11:26:27;;;;;;;5.35;1.73;;;19.30;90.20;;;;;;5007306;28;20208;-73
2021/08/03 11:29:13;;;;;;;10.93;2.03;;;19.30;90.20;;;;;;5004799;28;20267;-73
2021/08/03 11:31:58;;;;;;;6.38;1.60;;;19.40;90.10;;;;;;5008265;28;20272;-74
2021/08/03 11:34:28;;;;;;;8.77;2.00;;;19.50;90.00;;;;;;5009561;28;20209;-71
2021/08/03 11:37:08;;;;;;;7.90;2.15;;;19.60;90.00;;;;;;5007101;28;20200;-70
2021/08/03 11:39:37;;;;;;;6.15;1.90;;;19.70;89.80;;;;;;5002313;28;20862;-69
2021/08/03 11:42:07;;;;;;;12.02;1.98;;;19.90;89.50;;;;;;5009254;28;20200;-72
2021/08/03 11:44:34;;;;;;;5.68;2.10;;;20.10;89.20;;;;;;5011686;28;20201;-72
2021/08/03 11:47:04;;;;;;;8.40;2.40;;;20.30;88.60;;;;;;5008421;28;20205;-72
2021/08/03 11:49:41;;;;;;;8.52;2.60;;;20.60;88.90;;;;;;5010252;28;20267;-73
2021/08/03 11:52:13;;;;;;;5.30;2.33;;;21.20;87.90;;;;;;5012860;28;20762;-75
2021/08/03 11:54:41;;;;;;;8.95;2.50;;;22.10;86.00;;;;;;5008005;28;21201;-69
2021/08/03 11:57:29;;;;;;;6.10;2.17;;;22.70;83.30;;;;;;5009216;28;20204;-72
2021/08/03 12:00:07;;;;;;;4.68;2.35;;;23.00;80.30;;;;;;5010163;28;20220;-71
2021/08/03 12:02:35;;;;;;;5.50;2.60;;;23.20;78.50;;;;;;5009466;28;20216;-74
2021/08/03 12:05:11;;;;;;;7.53;2.03;;;23.40;76.90;;;;;;5010167;28;20592;-73
2021/08/03 12:07:39;;;;;;;5.35;2.30;;;23.60;75.00;;;;;;5006511;28;20196;-71
2021/08/03 12:10:08;;;;;;;6.22;2.60;;;24.00;74.00;;;;;;5009629;28;20309;-72
2021/08/03 12:12:42;;;;;;;4.57;1.83;;;24.50;71.80;;;;;;5014727;28;20200;-72
2021/08/03 12:15:11;;;;;;;4.20;1.80;;;25.10;70.10;;;;;;5007746;28;20675;-73
2021/08/03 12:17:39;;;;;;;2.78;1.70;;;25.40;67.00;;;;;;5007519;28;20262;-73
2021/08/03 12:20:23;;;;;;;5.32;2.20;;;25.60;64.20;;;;;;5009457;28;20584;-72
2021/08/03 12:22:50;;;;;;;2.70;1.70;;;25.70;62.20;;;;;;5009253;28;20204;-71
2021/08/03 12:25:18;;;;;;;3.88;1.60;;;25.80;61.00;;;;;;5010936;28;20192;-72
2021/08/03 12:27:48;;;;;;;5.38;1.42;;;26.00;60.70;;;;;;5010190;28;20216;-73
2021/08/03 12:30:34;;;;;;;3.80;2.00;;;26.20;60.00;;;;;;5011598;28;20199;-74
2021/08/03 12:33:02;;;;;;;4.53;1.77;;;26.50;58.90;;;;;;5006259;28;20210;-73
2021/08/03 12:35:29;;;;;;;6.40;1.73;;;26.50;58.10;;;;;;5008627;28;20211;-70
2021/08/03 12:38:11;;;;;;;7.78;2.22;;;26.40;57.30;;;;;;5008176;28;20203;-70
2021/08/03 12:40:38;;;;;;;3.65;1.83;;;26.40;57.00;;;;;;5008572;28;20192;-72
2021/08/03 12:43:07;;;;;;;5.90;2.13;;;26.40;56.80;;;;;;5008067;28;20566;-71
2021/08/03 12:45:35;;;;;;;6.95;2.30;;;26.50;55.20;;;;;;5006276;28;20265;-75
2021/08/03 12:48:03;;;;;;;4.65;1.80;;;26.50;54.70;;;;;;5008429;28;20196;-74
2021/08/03 12:50:31;;;;;;;5.95;1.98;;;26.50;55.30;;;;;;5006785;28;20200;-73
2021/08/03 12:53:01;;;;;;;6.13;2.05;;;26.40;54.80;;;;;;5008661;28;20204;-76
2021/08/03 12:55:31;;;;;;;5.60;2.00;;;26.30;54.30;;;;;;5005960;28;20574;-74
2021/08/03 12:57:59;;;;;;;5.50;1.85;;;26.30;54.00;;;;;;5008703;28;20204;-75
2021/08/03 13:00:30;;;;;;;4.85;1.40;;;26.30;53.60;;;;;;5008177;28;20228;-74
2021/08/03 13:02:57;;;;;;;5.13;2.00;;;26.40;55.60;;;;;;5008663;28;20207;-74